Time;durP1;ratioP1;P1;durP2;ratioP2;P2;SDS_P1;SDS_P2;PMS_P1;PMS_P2;Temp;Humidity;BMP_temperature;BMP_pressure;BME280_temperature;BME280_humidity;BME280_pressure;Samples;Min_cycle;Max_cycle;Signal;HPM_P1;HPM_P2
2021/07/12 03:32:51;;;;;;;0.20;0.20;;;;;;;15.65;66.45;92552.97;6242199;22;20035;-78
2021/07/12 03:35:22;;;;;;;0.10;0.10;;;;;;;15.88;66.56;92588.66;6218926;23;20023;-78
2021/07/12 03:37:49;;;;;;;0.10;0.10;;;;;;;15.90;66.74;92599.69;6218231;23;20447;-80
2021/07/12 03:40:17;;;;;;;0.73;0.32;;;;;;;15.93;66.52;92612.25;6194037;23;20486;-79
2021/07/12 03:42:44;;;;;;;0.20;0.20;;;;;;;15.95;66.77;92620.63;6217959;23;20008;-78
2021/07/12 03:45:13;;;;;;;0.17;0.17;;;;;;;15.98;66.64;92630.53;6194259;23;20019;-79
2021/07/12 03:47:39;;;;;;;0.20;0.20;;;;;;;16.05;66.54;92621.34;6217683;23;20020;-79
2021/07/12 03:50:14;;;;;;;0.55;0.47;;;;;;;16.14;66.37;92622.88;6193380;23;20024;-78
2021/07/12 03:52:49;;;;;;;0.17;0.17;;;;;;;16.22;66.28;92637.16;6218110;23;20012;-78
2021/07/12 03:55:17;;;;;;;0.20;0.20;;;;;;;16.34;66.30;92641.75;6243799;23;20012;-78
2021/07/12 03:57:44;;;;;;;0.20;0.20;;;;;;;16.40;66.48;92649.19;6245579;23;20044;-78
2021/07/12 04:00:12;;;;;;;0.32;0.32;;;;;;;16.47;66.15;92645.28;6219439;23;20457;-79
2021/07/12 04:02:39;;;;;;;0.30;0.30;;;;;;;16.56;65.79;92632.78;6245412;23;20028;-79
2021/07/12 04:05:07;;;;;;;0.20;0.20;;;;;;;16.64;65.30;92632.00;6218961;23;20000;-78
2021/07/12 04:07:34;;;;;;;0.30;0.30;;;;;;;16.72;64.91;92625.84;6245380;23;20050;-79
2021/07/12 04:09:59;;;;;;;1.27;0.35;;;;;;;16.80;66.23;92632.22;6242303;23;20054;-79
2021/07/12 04:12:25;;;;;;;0.20;0.20;;;;;;;16.87;65.90;92631.72;6218506;23;20027;-78
2021/07/12 04:14:52;;;;;;;0.30;0.30;;;;;;;16.90;65.06;92617.84;6218211;23;20038;-79
2021/07/12 04:17:18;;;;;;;0.13;0.13;;;;;;;16.93;65.10;92610.06;6218958;23;20042;-79
2021/07/12 04:19:44;;;;;;;0.20;0.20;;;;;;;16.99;64.87;92618.56;6220417;23;20040;-79
2021/07/12 04:22:10;;;;;;;0.17;0.17;;;;;;;17.01;65.04;92616.38;6245876;23;20055;-79
2021/07/12 04:24:36;;;;;;;0.55;0.50;;;;;;;17.04;64.84;92613.06;6193639;23;20028;-78
2021/07/12 04:27:02;;;;;;;0.20;0.20;;;;;;;17.06;64.87;92618.81;6246310;23;20019;-78
2021/07/12 04:29:27;;;;;;;0.30;0.30;;;;;;;17.05;65.06;92615.41;6219165;23;20004;-79
2021/07/12 04:31:55;;;;;;;0.30;0.30;;;;;;;17.08;64.92;92626.44;6244171;23;20027;-79
2021/07/12 04:34:20;;;;;;;0.20;0.20;;;;;;;17.10;65.12;92627.66;6220131;23;20031;-78
2021/07/12 04:36:46;;;;;;;0.80;0.70;;;;;;;17.10;65.38;92614.44;6245240;23;20015;-79
2021/07/12 04:39:13;;;;;;;0.43;0.43;;;;;;;17.11;65.16;92604.63;6243745;23;20016;-79
2021/07/12 04:41:39;;;;;;;1.95;0.70;;;;;;;17.17;65.54;92598.06;6219175;23;20048;-78
2021/07/12 04:44:05;;;;;;;0.30;0.30;;;;;;;17.20;65.38;92590.25;6218211;23;20016;-79
2021/07/12 04:46:30;;;;;;;0.57;0.50;;;;;;;17.25;66.57;92579.47;6243484;23;20066;-79
2021/07/12 04:48:56;;;;;;;0.10;0.10;;;;;;;17.31;66.82;92584.56;6244231;23;20051;-80
2021/07/12 04:51:21;;;;;;;1.48;0.57;;;;;;;17.38;66.35;92582.16;6219279;23;20068;-79
2021/07/12 04:53:47;;;;;;;0.22;0.22;;;;;;;17.43;66.30;92568.72;6220929;23;20015;-79
2021/07/12 04:56:13;;;;;;;0.10;0.10;;;;;;;17.48;66.06;92568.53;6245978;23;20011;-79
2021/07/12 04:58:44;;;;;;;0.75;0.43;;;;;;;17.52;66.31;92544.81;6219339;23;20039;-80
2021/07/12 05:01:10;;;;;;;0.20;0.20;;;;;;;17.58;66.32;92548.81;6218596;23;20225;-77
2021/07/12 05:03:36;;;;;;;0.55;0.38;;;;;;;17.64;66.62;92547.50;6246012;23;20020;-78
2021/07/12 05:06:02;;;;;;;0.25;0.25;;;;;;;17.69;66.28;92542.75;6243769;23;20043;-77
2021/07/12 05:08:28;;;;;;;0.28;0.22;;;;;;;17.75;66.39;92547.84;6244274;23;20479;-78
2021/07/12 05:10:54;;;;;;;0.60;0.43;;;;;;;17.81;66.23;92546.53;6243486;23;20040;-77
2021/07/12 05:13:21;;;;;;;0.63;0.63;;;;;;;17.86;66.31;92535.75;6240546;23;20015;-77
2021/07/12 05:15:47;;;;;;;0.20;0.20;;;;;;;17.90;66.69;92523.41;6217360;23;20019;-78
2021/07/12 05:18:12;;;;;;;0.10;0.10;;;;;;;17.94;65.64;92513.69;6241917;23;20012;-77
2021/07/12 05:20:38;;;;;;;0.10;0.10;;;;;;;18.03;64.83;92510.94;6216915;23;20016;-77
2021/07/12 05:23:04;;;;;;;0.40;0.40;;;;;;;18.14;66.43;92508.63;6215903;23;20463;-78
2021/07/12 05:25:29;;;;;;;0.10;0.10;;;;;;;18.17;65.48;92500.78;6214440;23;20111;-77
2021/07/12 05:27:55;;;;;;;0.20;0.20;;;;;;;18.24;65.84;92497.59;6216832;23;20012;-77
2021/07/12 05:30:21;;;;;;;0.52;0.50;;;;;;;18.33;65.68;92487.63;6215246;23;20020;-77
2021/07/12 05:32:47;;;;;;;0.20;0.20;;;;;;;18.41;64.34;92472.69;6243042;23;20020;-77
2021/07/12 05:35:12;;;;;;;0.30;0.30;;;;;;;18.51;63.68;92482.84;6216756;23;20432;-77
2021/07/12 05:37:38;;;;;;;0.20;0.20;;;;;;;18.61;63.20;92477.06;6216717;23;20591;-77
2021/07/12 05:40:05;;;;;;;0.57;0.47;;;;;;;18.70;62.81;92466.31;6243061;23;20339;-77
2021/07/12 05:42:31;;;;;;;0.30;0.30;;;;;;;18.77;62.60;92461.25;6243797;23;20019;-77
2021/07/12 05:44:57;;;;;;;0.15;0.15;;;;;;;18.83;62.07;92467.88;6243534;23;20008;-76
2021/07/12 05:47:22;;;;;;;0.20;0.20;;;;;;;18.88;61.24;92480.88;6243772;23;20365;-77
2021/07/12 05:49:48;;;;;;;0.20;0.20;;;;;;;18.96;60.85;92489.81;6242430;23;20444;-77
2021/07/12 05:52:14;;;;;;;0.43;0.40;;;;;;;19.08;60.76;92475.72;6242684;23;20066;-77
2021/07/12 05:54:40;;;;;;;0.15;0.15;;;;;;;19.22;60.74;92467.34;6242519;23;20471;-77
2021/07/12 05:57:06;;;;;;;0.28;0.28;;;;;;;19.40;60.46;92473.13;6241580;23;20107;-77
2021/07/12 05:59:32;;;;;;;0.47;0.30;;;;;;;19.59;59.41;92473.22;6216938;23;20348;-77
2021/07/12 06:01:57;;;;;;;0.30;0.30;;;;;;;19.91;57.94;92470.59;6242162;23;20019;-77
2021/07/12 06:04:23;;;;;;;0.10;0.10;;;;;;;20.57;58.60;92480.44;6242898;23;20016;-77
2021/07/12 06:06:48;;;;;;;0.20;0.20;;;;;;;21.34;56.41;92483.44;6243134;23;20009;-77
2021/07/12 06:09:14;;;;;;;0.35;0.35;;;;;;;21.78;55.75;92481.19;6242084;23;20016;-77
2021/07/12 06:11:40;;;;;;;0.28;0.28;;;;;;;21.83;55.89;92483.53;6216118;23;20020;-78
2021/07/12 06:14:06;;;;;;;0.30;0.30;;;;;;;21.68;55.97;92489.75;6216127;23;20063;-77
2021/07/12 06:16:31;;;;;;;0.10;0.10;;;;;;;21.53;56.68;92480.78;6216545;23;20428;-77
2021/07/12 06:18:57;;;;;;;0.20;0.20;;;;;;;21.57;56.73;92475.47;6242868;23;20050;-77
2021/07/12 06:21:24;;;;;;;0.30;0.30;;;;;;;21.62;56.67;92494.63;6216026;23;20016;-77
2021/07/12 06:23:50;;;;;;;0.20;0.20;;;;;;;21.51;57.18;92492.91;6215926;23;20037;-77
2021/07/12 06:26:15;;;;;;;0.28;0.28;;;;;;;21.38;58.15;92487.69;6242388;23;20434;-77
2021/07/12 06:28:42;;;;;;;0.40;0.40;;;;;;;21.40;57.61;92490.00;6241976;23;20343;-77
2021/07/12 06:31:08;;;;;;;0.20;0.20;;;;;;;21.62;56.85;92499.19;6242027;23;20026;-77
2021/07/12 06:33:34;;;;;;;0.93;0.82;;;;;;;23.73;51.22;92484.44;6242934;23;20067;-77
2021/07/12 06:36:00;;;;;;;0.40;0.40;;;;;;;25.82;44.26;92487.88;6216772;23;20004;-77
2021/07/12 06:38:25;;;;;;;0.40;0.40;;;;;;;27.36;40.80;92508.44;6240915;23;20012;-77
2021/07/12 06:40:52;;;;;;;0.85;0.85;;;;;;;27.75;37.43;92500.16;6241448;23;20020;-79
2021/07/12 06:43:18;;;;;;;0.20;0.20;;;;;;;28.44;36.75;92506.59;6246070;23;20380;-78
2021/07/12 06:45:45;;;;;;;0.35;0.35;;;;;;;28.86;35.46;92495.84;6242029;23;20016;-78
2021/07/12 06:48:10;;;;;;;0.28;0.28;;;;;;;29.09;37.37;92486.38;6244586;23;20478;-77
2021/07/12 06:50:38;;;;;;;0.20;0.20;;;;;;;28.56;38.70;92488.44;6215387;23;20024;-77
2021/07/12 06:53:04;;;;;;;0.60;0.60;;;;;;;27.24;39.79;92495.44;6216777;23;20478;-77
2021/07/12 06:55:29;;;;;;;0.63;0.63;;;;;;;25.86;42.63;92485.22;6241188;23;20004;-77
2021/07/12 06:57:56;;;;;;;1.17;0.50;;;;;;;25.20;45.26;92485.47;6241156;23;20459;-77
2021/07/12 07:00:22;;;;;;;0.20;0.20;;;;;;;24.60;46.93;92487.44;6240871;23;20026;-79
2021/07/12 07:02:59;;;;;;;0.40;0.40;;;;;;;24.55;48.06;92493.16;6218105;23;20023;-80
2021/07/12 07:05:28;;;;;;;0.20;0.20;;;;;;;24.25;48.92;92502.09;6215967;23;20229;-75
2021/07/12 07:08:00;;;;;;;0.30;0.30;;;;;;;23.39;50.31;92498.63;6216767;23;20459;-74
2021/07/12 07:10:26;;;;;;;0.57;0.50;;;;;;;22.95;52.81;92496.59;6239857;23;20069;-75
2021/07/12 07:12:52;;;;;;;0.30;0.30;;;;;;;22.64;51.55;92503.03;6241143;23;20028;-77
2021/07/12 07:15:18;;;;;;;0.32;0.32;;;;;;;22.47;50.24;92503.56;6216535;23;20027;-75
2021/07/12 07:17:45;;;;;;;0.20;0.20;;;;;;;22.81;52.01;92520.44;6241741;23;20039;-75
2021/07/12 07:20:12;;;;;;;0.20;0.20;;;;;;;22.82;53.17;92521.97;6239261;23;20012;-77
2021/07/12 07:22:38;;;;;;;0.20;0.20;;;;;;;22.72;53.21;92530.56;6240795;23;20008;-76
2021/07/12 07:25:04;;;;;;;0.13;0.13;;;;;;;22.90;53.28;92536.94;6242374;23;20019;-75
2021/07/12 07:27:32;;;;;;;1.45;0.40;;;;;;;23.21;53.35;92521.69;6240219;23;20016;-75
2021/07/12 07:29:58;;;;;;;0.30;0.30;;;;;;;23.16;53.09;92520.13;6240593;23;20070;-76
2021/07/12 07:32:23;;;;;;;0.32;0.32;;;;;;;23.21;52.68;92524.38;6240664;23;20051;-75
2021/07/12 07:34:49;;;;;;;0.43;0.40;;;;;;;22.98;53.37;92511.09;6213995;23;20068;-75
2021/07/12 07:37:14;;;;;;;0.17;0.17;;;;;;;23.04;53.09;92515.78;6241480;23;20000;-76
2021/07/12 07:39:41;;;;;;;0.30;0.30;;;;;;;22.77;53.07;92522.28;6240198;23;20317;-76
2021/07/12 07:42:07;;;;;;;0.20;0.20;;;;;;;22.72;53.68;92539.38;6241640;23;20375;-76
2021/07/12 07:44:32;;;;;;;0.47;0.47;;;;;;;23.35;53.62;92534.44;6242508;23;20012;-75
2021/07/12 07:46:58;;;;;;;0.30;0.30;;;;;;;23.65;51.55;92521.03;6242296;23;20095;-76
2021/07/12 07:49:24;;;;;;;0.30;0.30;;;;;;;23.94;49.50;92510.66;6242188;23;20035;-77
2021/07/12 07:51:50;;;;;;;0.40;0.40;;;;;;;24.25;49.21;92526.19;6242189;23;20016;-76
2021/07/12 07:54:16;;;;;;;0.22;0.22;;;;;;;24.67;50.25;92524.94;6241753;23;20069;-76
2021/07/12 07:56:41;;;;;;;0.80;0.75;;;;;;;24.79;51.43;92531.13;6242686;23;19996;-76
2021/07/12 07:59:08;;;;;;;0.50;0.50;;;;;;;25.02;49.53;92528.22;6242375;23;20008;-76
2021/07/12 08:01:34;;;;;;;0.45;0.45;;;;;;;24.31;50.62;92539.97;6214891;23;20455;-76
2021/07/12 08:03:59;;;;;;;0.93;0.45;;;;;;;23.71;52.06;92546.28;6242303;23;20018;-76
2021/07/12 08:06:25;;;;;;;0.40;0.40;;;;;;;23.53;52.81;92539.97;6241546;23;20443;-75
2021/07/12 08:08:51;;;;;;;0.82;0.43;;;;;;;23.09;54.75;92548.63;6215495;23;20332;-76
2021/07/12 08:11:17;;;;;;;0.82;0.63;;;;;;;23.36;54.24;92547.44;6240056;23;20070;-77
2021/07/12 08:13:43;;;;;;;0.32;0.32;;;;;;;23.23;55.32;92554.16;6238905;23;20103;-77
2021/07/12 08:16:09;;;;;;;0.50;0.43;;;;;;;23.37;54.23;92557.00;6241922;23;20456;-77
2021/07/12 08:18:35;;;;;;;0.30;0.30;;;;;;;23.25;54.47;92554.56;6242450;23;20444;-77
2021/07/12 08:21:01;;;;;;;1.27;0.73;;;;;;;23.03;54.99;92561.53;6241756;23;20019;-77
2021/07/12 08:23:27;;;;;;;1.00;0.68;;;;;;;23.46;54.98;92554.81;6241459;23;20399;-77
2021/07/12 08:25:53;;;;;;;0.30;0.30;;;;;;;23.39;54.65;92557.38;6242174;23;20074;-77
2021/07/12 08:28:19;;;;;;;0.20;0.20;;;;;;;23.56;54.29;92561.41;6242960;23;20007;-78
2021/07/12 08:30:45;;;;;;;0.63;0.60;;;;;;;23.59;54.64;92567.91;6241124;23;20016;-79
2021/07/12 08:33:11;;;;;;;0.32;0.30;;;;;;;24.04;54.17;92566.09;6239241;23;20567;-78
2021/07/12 08:35:37;;;;;;;0.20;0.20;;;;;;;24.32;51.30;92565.59;6239433;23;20091;-81
2021/07/12 08:38:05;;;;;;;0.30;0.30;;;;;;;23.89;54.04;92584.69;6215880;23;20467;-77
2021/07/12 08:40:32;;;;;;;0.65;0.60;;;;;;;24.06;53.57;92582.53;6241192;23;20027;-77
2021/07/12 08:42:59;;;;;;;0.52;0.40;;;;;;;24.00;48.89;92589.34;6241679;23;20117;-78
2021/07/12 08:45:27;;;;;;;0.22;0.22;;;;;;;23.54;52.87;92589.63;6242218;23;20019;-77
2021/07/12 08:47:53;;;;;;;0.57;0.57;;;;;;;23.32;54.42;92593.94;6242040;23;20013;-78
2021/07/12 08:50:21;;;;;;;0.40;0.40;;;;;;;22.72;55.46;92595.41;6213815;23;20515;-79
2021/07/12 08:52:49;;;;;;;0.85;0.47;;;;;;;23.26;54.18;92593.50;6241015;23;20016;-79
2021/07/12 08:55:16;;;;;;;0.22;0.22;;;;;;;23.47;54.53;92591.06;6242257;23;20436;-77
2021/07/12 08:57:57;;;;;;;0.30;0.30;;;;;;;23.55;54.98;92581.22;6241318;23;20008;-78
2021/07/12 09:00:44;;;;;;;0.40;0.40;;;;;;;23.46;55.39;92589.53;6241608;23;20012;-78
2021/07/12 09:03:38;;;;;;;0.25;0.25;;;;;;;23.28;56.14;92591.19;6213696;23;20015;-78
2021/07/12 09:06:10;;;;;;;0.22;0.22;;;;;;;22.96;57.60;92588.84;6210985;23;20048;-78
2021/07/12 09:08:44;;;;;;;0.30;0.30;;;;;;;23.53;55.84;92598.75;6240465;23;20062;-78
2021/07/12 09:11:14;;;;;;;0.38;0.38;;;;;;;23.47;55.63;92604.41;6240682;23;20016;-77
2021/07/12 09:14:09;;;;;;;0.30;0.30;;;;;;;23.86;52.55;92596.09;6241639;23;20000;-78
2021/07/12 09:16:47;;;;;;;0.40;0.40;;;;;;;23.29;56.27;92606.09;6214007;23;20016;-79
2021/07/12 09:19:32;;;;;;;0.45;0.45;;;;;;;23.53;55.56;92602.22;6216437;23;20055;-78
2021/07/12 09:22:09;;;;;;;0.17;0.17;;;;;;;23.49;56.07;92609.41;6242153;23;20113;-77
2021/07/12 09:24:55;;;;;;;0.35;0.35;;;;;;;23.43;55.01;92627.66;6242837;23;20545;-77
2021/07/12 09:27:26;;;;;;;0.40;0.40;;;;;;;23.98;54.50;92619.16;6242961;23;20195;-77
2021/07/12 09:30:13;;;;;;;0.20;0.20;;;;;;;23.85;51.56;92620.53;6216110;23;20165;-77
2021/07/12 09:32:42;;;;;;;0.32;0.32;;;;;;;23.73;54.62;92623.41;6243509;23;20337;-77
2021/07/12 09:35:13;;;;;;;0.50;0.50;;;;;;;24.20;54.25;92622.00;6244061;23;20509;-77
2021/07/12 09:37:42;;;;;;;0.20;0.20;;;;;;;24.04;53.59;92608.88;6245611;23;20008;-78
2021/07/12 09:40:14;;;;;;;0.50;0.38;;;;;;;23.17;55.79;92628.47;6219310;23;20012;-77
2021/07/12 09:42:41;;;;;;;;;;;;;;;23.64;50.43;92632.50;6244796;23;20019;-78
2021/07/12 09:45:09;;;;;;;0.65;0.57;;;;;;;24.03;50.66;92620.72;6244743;23;19911;-78
2021/07/12 09:47:38;;;;;;;0.38;0.38;;;;;;;24.22;50.15;92627.75;6216906;23;20046;-77
2021/07/12 09:50:03;;;;;;;0.40;0.40;;;;;;;24.02;48.97;92630.63;6217540;23;20127;-77
2021/07/12 09:52:38;;;;;;;0.35;0.35;;;;;;;23.79;50.23;92614.72;6244258;23;20043;-77
2021/07/12 09:55:04;;;;;;;0.35;0.35;;;;;;;24.16;50.04;92623.88;6243534;23;20087;-77
2021/07/12 09:57:29;;;;;;;0.50;0.50;;;;;;;24.59;49.52;92629.63;6191910;23;20000;-77
2021/07/12 10:00:09;;;;;;;0.77;0.68;;;;;;;24.99;47.99;92630.69;6243527;23;20452;-78
2021/07/12 10:02:46;;;;;;;0.30;0.30;;;;;;;25.21;46.37;92623.59;6242232;23;20351;-77
2021/07/12 10:05:13;;;;;;;0.28;0.28;;;;;;;25.76;45.35;92624.22;6214515;23;20051;-77
2021/07/12 10:07:39;;;;;;;0.40;0.40;;;;;;;26.31;43.96;92620.56;6215897;23;20442;-77
2021/07/12 10:10:13;;;;;;;0.43;0.32;;;;;;;26.52;44.31;92610.97;6242703;23;20022;-77
2021/07/12 10:12:40;;;;;;;0.40;0.40;;;;;;;24.89;44.83;92622.22;6242847;23;20015;-77
2021/07/12 10:15:07;;;;;;;0.30;0.30;;;;;;;25.74;44.22;92615.78;6243384;23;20000;-78
2021/07/12 10:17:33;;;;;;;0.43;0.40;;;;;;;25.49;45.92;92609.59;6212903;23;20098;-77
2021/07/12 10:19:58;;;;;;;0.40;0.40;;;;;;;25.44;45.40;92607.25;6244918;23;20352;-78
2021/07/12 10:22:25;;;;;;;0.30;0.30;;;;;;;24.99;47.12;92609.28;6242740;23;20012;-77
2021/07/12 10:24:51;;;;;;;0.20;0.20;;;;;;;24.50;46.40;92616.59;6241491;23;20416;-77
2021/07/12 10:27:25;;;;;;;0.43;0.43;;;;;;;24.29;48.68;92615.22;6191650;23;20020;-77
2021/07/12 10:29:53;;;;;;;0.40;0.40;;;;;;;24.58;48.14;92602.09;6242965;23;20008;-77
2021/07/12 10:32:51;;;;;;;0.20;0.20;;;;;;;24.51;49.41;92602.06;6244444;23;20020;-76
2021/07/12 10:35:37;;;;;;;0.22;0.20;;;;;;;24.27;48.22;92601.47;6246849;23;20020;-77
2021/07/12 10:38:04;;;;;;;0.45;0.38;;;;;;;24.48;50.35;92586.75;6243577;23;20015;-78
2021/07/12 10:40:50;;;;;;;0.55;0.55;;;;;;;24.42;47.98;92585.53;6241915;23;20448;-76
2021/07/12 10:43:34;;;;;;;0.52;0.40;;;;;;;24.77;48.51;92589.63;6244147;23;20213;-76
2021/07/12 10:46:01;;;;;;;0.73;0.63;;;;;;;25.00;46.19;92581.38;6243184;23;20077;-76
2021/07/12 10:48:54;;;;;;;0.40;0.40;;;;;;;24.36;49.14;92578.97;6243424;23;20016;-76
2021/07/12 10:51:30;;;;;;;0.60;0.50;;;;;;;24.98;47.80;92576.38;6211803;23;20016;-76
2021/07/12 10:54:11;;;;;;;0.25;0.25;;;;;;;24.93;46.06;92574.81;6241786;23;20522;-77
2021/07/12 10:56:44;;;;;;;0.43;0.43;;;;;;;24.80;48.49;92570.16;6241954;23;20103;-77
2021/07/12 10:59:25;;;;;;;0.75;0.52;;;;;;;24.59;48.23;92571.56;6217380;23;20008;-77
2021/07/12 11:01:51;;;;;;;0.47;0.47;;;;;;;24.62;47.48;92567.38;6243379;23;20339;-82
2021/07/12 11:04:32;;;;;;;0.30;0.30;;;;;;;24.49;47.99;92577.56;6243122;23;20016;-77
2021/07/12 11:06:58;;;;;;;1.05;0.70;;;;;;;24.70;47.33;92577.75;6243071;23;20340;-78
2021/07/12 11:09:45;;;;;;;0.22;0.22;;;;;;;25.17;47.90;92571.88;6216171;23;20004;-77
2021/07/12 11:12:26;;;;;;;0.30;0.30;;;;;;;24.80;48.24;92567.47;6242817;23;20015;-78
2021/07/12 11:15:19;;;;;;;0.40;0.40;;;;;;;24.65;48.89;92567.38;6242057;23;20046;-77
2021/07/12 11:17:57;;;;;;;0.40;0.40;;;;;;;24.16;48.78;92565.03;6242410;23;20095;-77
2021/07/12 11:20:43;;;;;;;0.30;0.30;;;;;;;24.14;50.20;92559.28;6216325;23;20008;-77
2021/07/12 11:23:36;;;;;;;0.60;0.47;;;;;;;24.45;50.47;92572.19;6241840;23;20086;-77
2021/07/12 11:26:01;;;;;;;0.30;0.30;;;;;;;24.50;50.45;92563.09;6242463;23;20471;-77
2021/07/12 11:28:43;;;;;;;0.30;0.30;;;;;;;24.75;48.28;92565.16;6243049;23;20020;-77
2021/07/12 11:31:45;;;;;;;0.38;0.38;;;;;;;24.80;48.87;92564.81;6242555;22;20547;-77
2021/07/12 11:34:24;;;;;;;1.10;1.00;;;;;;;25.13;49.41;92555.81;6210358;23;20352;-77
2021/07/12 11:37:03;;;;;;;0.52;0.52;;;;;;;25.65;47.65;92555.66;6210268;23;20326;-77
2021/07/12 11:39:34;;;;;;;1.05;0.70;;;;;;;26.40;46.97;92544.28;6212535;23;20019;-77
2021/07/12 11:42:13;;;;;;;1.80;1.00;;;;;;;26.19;45.08;92556.53;6210431;23;20348;-78
2021/07/12 11:44:54;;;;;;;1.15;0.60;;;;;;;26.80;45.61;92551.19;6212240;23;20040;-77
2021/07/12 11:47:21;;;;;;;1.13;0.80;;;;;;;26.36;44.73;92549.63;6211900;23;20352;-78
2021/07/12 11:49:52;;;;;;;0.50;0.45;;;;;;;26.13;44.90;92552.69;6212074;23;20000;-77
2021/07/12 11:52:18;;;;;;;0.80;0.73;;;;;;;26.20;44.94;92549.25;6212269;23;20012;-77
2021/07/12 11:54:44;;;;;;;0.68;0.63;;;;;;;26.32;45.44;92546.97;6212244;23;20017;-78
2021/07/12 11:57:15;;;;;;;0.75;0.75;;;;;;;26.75;44.12;92549.66;6212791;23;20008;-77
2021/07/12 11:59:42;;;;;;;0.60;0.60;;;;;;;26.67;42.37;92556.16;6211633;23;20113;-78
2021/07/12 12:02:11;;;;;;;1.20;0.68;;;;;;;26.22;44.02;92546.97;6211527;23;20001;-77
2021/07/12 12:05:05;;;;;;;0.95;0.77;;;;;;;26.54;45.10;92550.38;6212087;23;20017;-78
2021/07/12 12:07:33;;;;;;;0.43;0.43;;;;;;;27.10;42.44;92549.94;6233409;23;20024;-78
2021/07/12 12:10:03;;;;;;;0.70;0.63;;;;;;;27.10;42.71;92542.66;6212621;23;20360;-77
2021/07/12 12:12:35;;;;;;;0.70;0.70;;;;;;;26.67;44.27;92548.13;6212303;23;20009;-77
2021/07/12 12:15:08;;;;;;;0.60;0.57;;;;;;;26.65;43.30;92538.91;6210275;23;20034;-77
2021/07/12 12:17:38;;;;;;;1.17;0.63;;;;;;;26.11;43.70;92539.66;6211337;23;20518;-78
2021/07/12 12:20:11;;;;;;;0.85;0.63;;;;;;;26.04;44.97;92536.22;6212474;23;20013;-77
2021/07/12 12:22:51;;;;;;;0.73;0.68;;;;;;;25.53;46.24;92536.09;6212590;23;20344;-77
2021/07/12 12:25:17;;;;;;;0.77;0.75;;;;;;;25.45;46.75;92528.41;6211744;23;20087;-76
2021/07/12 12:27:43;;;;;;;2.00;1.05;;;;;;;25.49;45.77;92519.22;6211310;23;20463;-77
2021/07/12 12:30:09;;;;;;;0.57;0.57;;;;;;;25.77;46.00;92518.50;6212292;23;20111;-78
2021/07/12 12:32:35;;;;;;;0.75;0.70;;;;;;;25.57;46.82;92519.25;6210002;23;20090;-77
2021/07/12 12:35:06;;;;;;;0.45;0.43;;;;;;;25.81;46.04;92515.84;6208051;23;20119;-77
2021/07/12 12:37:41;;;;;;;1.33;1.00;;;;;;;26.03;46.01;92519.38;6185892;23;20012;-77
2021/07/12 12:40:18;;;;;;;0.73;0.73;;;;;;;25.94;45.33;92510.94;6209865;23;20020;-77
2021/07/12 12:42:46;;;;;;;0.93;0.70;;;;;;;25.41;45.99;92506.94;6211821;23;20008;-78
2021/07/12 12:45:22;;;;;;;1.13;0.57;;;;;;;25.86;47.56;92509.34;6184864;23;20009;-77
2021/07/12 12:47:48;;;;;;;0.73;0.60;;;;;;;26.05;45.66;92500.19;6211805;23;20088;-77
2021/07/12 12:50:17;;;;;;;0.82;0.70;;;;;;;26.28;45.81;92494.47;6212652;23;20036;-80
2021/07/12 12:52:43;;;;;;;0.95;0.77;;;;;;;26.94;45.22;92502.78;6212194;23;20013;-77
2021/07/12 12:55:13;;;;;;;0.55;0.50;;;;;;;27.40;44.10;92504.56;6185098;23;20071;-77
2021/07/12 12:57:40;;;;;;;1.13;0.88;;;;;;;27.08;44.94;92499.28;6211593;23;20019;-77
2021/07/12 13:00:10;;;;;;;1.35;0.90;;;;;;;26.57;44.97;92492.53;6212128;23;20008;-78
2021/07/12 13:02:38;;;;;;;1.45;0.80;;;;;;;25.95;46.96;92491.75;6211662;23;20432;-77
2021/07/12 13:05:08;;;;;;;1.23;0.88;;;;;;;25.66;44.86;92490.94;6210347;23;20337;-76
2021/07/12 13:07:45;;;;;;;1.08;0.80;;;;;;;25.84;46.09;92482.16;6183634;23;20017;-77
2021/07/12 13:10:25;;;;;;;1.05;0.80;;;;;;;25.24;48.06;92483.53;6211464;23;20012;-76
2021/07/12 13:12:56;;;;;;;0.75;0.60;;;;;;;25.80;47.50;92489.41;6184989;23;20437;-77
2021/07/12 13:15:27;;;;;;;0.90;0.60;;;;;;;25.30;47.74;92479.38;6213673;23;20352;-76
2021/07/12 13:17:58;;;;;;;0.60;0.60;;;;;;;25.61;46.21;92493.22;6212457;23;20008;-77
2021/07/12 13:20:28;;;;;;;1.45;1.00;;;;;;;25.70;45.52;92485.59;6186490;23;20070;-77
2021/07/12 13:22:56;;;;;;;0.50;0.50;;;;;;;25.57;46.84;92481.72;6212828;23;20013;-77
2021/07/12 13:25:28;;;;;;;1.02;0.77;;;;;;;25.13;46.89;92478.16;6213337;23;20012;-76
2021/07/12 13:27:56;;;;;;;;;;;;;;;25.37;47.55;92474.03;6213438;23;20020;-76
2021/07/12 13:30:24;;;;;;;1.08;0.73;;;;;;;25.10;48.40;92470.84;6212354;23;19995;-77
2021/07/12 13:32:50;;;;;;;1.15;0.77;;;;;;;25.40;48.41;92478.63;6185730;23;20441;-77
2021/07/12 13:35:42;;;;;;;1.15;0.77;;;;;;;25.49;47.44;92479.03;6186959;23;20036;-77
2021/07/12 13:38:12;;;;;;;1.88;0.98;;;;;;;25.40;47.39;92467.91;6183544;23;20031;-77
2021/07/12 13:40:42;;;;;;;1.08;0.80;;;;;;;25.13;48.58;92478.91;6187346;23;20020;-77
2021/07/12 13:43:09;;;;;;;0.40;0.40;;;;;;;24.85;49.22;92476.09;6211373;23;20505;-77
2021/07/12 13:45:35;;;;;;;0.40;0.40;;;;;;;24.77;50.10;92475.31;6212218;23;20017;-77
2021/07/12 13:48:02;;;;;;;0.30;0.30;;;;;;;24.86;50.02;92477.66;6212500;23;20504;-77
2021/07/12 13:50:29;;;;;;;0.80;0.70;;;;;;;25.23;48.07;92482.03;6160943;23;20082;-77
2021/07/12 13:52:59;;;;;;;1.35;0.80;;;;;;;25.50;46.91;92477.88;6213358;23;20008;-77
2021/07/12 13:55:27;;;;;;;1.50;1.10;;;;;;;26.08;46.07;92472.63;6186277;23;20071;-77
2021/07/12 13:57:55;;;;;;;0.52;0.52;;;;;;;26.69;47.87;92473.31;6211521;23;20019;-77
2021/07/12 14:00:24;;;;;;;0.70;0.70;;;;;;;26.85;46.41;92466.78;6186611;23;20092;-77
2021/07/12 14:02:50;;;;;;;0.65;0.63;;;;;;;27.30;45.61;92461.63;6212890;23;20023;-77
2021/07/12 14:05:17;;;;;;;1.05;0.95;;;;;;;26.85;45.66;92464.84;6212865;23;20009;-77
2021/07/12 14:07:44;;;;;;;0.52;0.52;;;;;;;26.99;46.06;92458.66;6213499;23;20016;-78
2021/07/12 14:10:12;;;;;;;1.42;0.82;;;;;;;27.30;44.79;92456.25;6209421;23;20059;-77
2021/07/12 14:12:39;;;;;;;1.20;0.90;;;;;;;27.13;46.27;92465.88;6212093;23;20040;-78
2021/07/12 14:15:07;;;;;;;0.95;0.70;;;;;;;26.93;44.02;92457.50;6159933;23;20151;-76
2021/07/12 14:17:33;;;;;;;0.75;0.75;;;;;;;26.81;45.85;92452.59;6186536;23;20484;-76
2021/07/12 14:19:59;;;;;;;0.93;0.80;;;;;;;26.97;46.43;92455.59;6186399;23;20044;-77
2021/07/12 14:22:25;;;;;;;1.92;1.17;;;;;;;27.36;45.01;92452.75;6161824;23;20020;-79
2021/07/12 14:24:51;;;;;;;0.80;0.80;;;;;;;27.50;43.46;92449.22;6212048;23;20023;-79
2021/07/12 14:27:17;;;;;;;1.17;1.00;;;;;;;27.67;44.43;92444.13;6186179;23;20408;-78
2021/07/12 14:29:46;;;;;;;1.10;0.73;;;;;;;27.25;43.88;92452.06;6212542;23;20101;-79
2021/07/12 14:32:13;;;;;;;1.23;1.08;;;;;;;27.21;44.44;92437.88;6212605;23;20076;-78
2021/07/12 14:34:40;;;;;;;1.63;0.93;;;;;;;26.29;47.82;92442.31;6214109;23;20032;-78
2021/07/12 14:37:06;;;;;;;0.70;0.70;;;;;;;26.13;46.80;92432.00;6162165;23;20060;-81
2021/07/12 14:39:31;;;;;;;1.08;0.90;;;;;;;26.72;46.59;92434.97;6161574;23;20016;-79
2021/07/12 14:41:57;;;;;;;1.13;0.73;;;;;;;27.08;45.52;92429.44;6212863;23;20016;-78
2021/07/12 14:44:23;;;;;;;1.25;1.05;;;;;;;27.43;45.15;92422.41;6186694;23;20091;-79
2021/07/12 14:46:49;;;;;;;1.17;0.93;;;;;;;27.33;45.51;92429.34;6210605;23;20024;-79
2021/07/12 14:49:15;;;;;;;1.48;1.00;;;;;;;27.19;45.25;92426.72;6213689;23;20438;-79
2021/07/12 14:51:42;;;;;;;1.48;0.93;;;;;;;26.92;45.84;92421.09;6212348;23;20020;-79
2021/07/12 14:54:08;;;;;;;1.15;1.05;;;;;;;25.70;48.91;92426.63;6210691;23;20023;-79
2021/07/12 14:56:53;;;;;;;0.85;0.68;;;;;;;25.69;48.71;92425.84;6187239;23;20072;-79
2021/07/12 14:59:19;;;;;;;1.38;1.00;;;;;;;25.62;50.58;92425.06;6212490;23;20020;-79
2021/07/12 15:01:46;;;;;;;0.95;0.73;;;;;;;25.59;49.41;92426.59;6214074;23;20008;-79
2021/07/12 15:04:12;;;;;;;1.25;0.80;;;;;;;25.72;50.50;92433.13;6211826;23;20036;-79
2021/07/12 15:06:38;;;;;;;1.08;0.70;;;;;;;25.49;49.83;92424.69;6186740;23;20020;-80
2021/07/12 15:09:03;;;;;;;0.35;0.35;;;;;;;25.72;49.75;92429.69;6211663;23;20027;-79
2021/07/12 15:11:31;;;;;;;0.57;0.57;;;;;;;25.40;49.82;92435.78;6213428;23;20100;-79
2021/07/12 15:13:56;;;;;;;1.88;1.25;;;;;;;25.32;50.07;92423.50;6186208;23;20122;-79
2021/07/12 15:16:23;;;;;;;0.65;0.55;;;;;;;25.22;51.38;92424.22;6212417;23;20012;-78